Time;durP1;ratioP1;P1;durP2;ratioP2;P2;SDS_P1;SDS_P2;PMS_P1;PMS_P2;Temp;Humidity;BMP_temperature;BMP_pressure;BME280_temperature;BME280_humidity;BME280_pressure;Samples;Min_cycle;Max_cycle;Signal;HPM_P1;HPM_P2
2024/02/29 00:02:12;;;;;;;14.90;9.32;;;;;;;9.21;89.51;93470.34;5058431;28;20067;-74
2024/02/29 00:04:38;;;;;;;17.08;9.00;;;;;;;9.23;89.52;93476.84;5058834;28;20052;-74
2024/02/29 00:07:06;;;;;;;14.57;9.55;;;;;;;9.12;90.21;93467.16;5060492;28;20859;-74
2024/02/29 00:09:33;;;;;;;15.48;9.50;;;;;;;9.09;90.28;93473.47;5065301;28;20498;-74
2024/02/29 00:12:01;;;;;;;16.50;10.40;;;;;;;9.02;90.84;93471.91;5063219;28;20041;-74
2024/02/29 00:14:28;;;;;;;18.45;10.70;;;;;;;8.97;91.78;93477.59;5059258;28;20405;-74
2024/02/29 00:16:57;;;;;;;17.52;9.55;;;;;;;8.99;91.23;93485.06;5059334;28;20492;-74
2024/02/29 00:19:24;;;;;;;16.75;10.98;;;;;;;8.94;91.53;93478.75;5064176;28;20477;-74
2024/02/29 00:21:51;;;;;;;13.27;8.25;;;;;;;8.78;91.13;93467.09;5061777;28;20052;-74
2024/02/29 00:24:18;;;;;;;12.55;8.00;;;;;;;8.81;91.06;93479.50;5050983;28;20127;-73
2024/02/29 00:26:45;;;;;;;14.15;8.27;;;;;;;8.80;91.23;93477.16;5060109;28;20048;-74
2024/02/29 00:29:13;;;;;;;13.48;8.57;;;;;;;8.74;91.04;93478.69;5065381;28;20413;-74
2024/02/29 00:31:43;;;;;;;15.95;9.13;;;;;;;8.66;92.02;93471.97;5059544;28;21113;-74
2024/02/29 00:34:10;;;;;;;14.57;8.98;;;;;;;8.63;92.44;93469.00;5065660;28;20498;-74
2024/02/29 00:36:37;;;;;;;19.00;9.32;;;;;;;8.59;93.65;93467.78;5063621;28;20135;-74
2024/02/29 00:39:05;;;;;;;17.20;10.05;;;;;;;8.65;93.34;93472.94;5066676;28;20059;-74
2024/02/29 00:41:33;;;;;;;16.65;10.10;;;;;;;8.63;93.30;93463.88;5061223;28;20049;-73
2024/02/29 00:44:00;;;;;;;18.08;11.18;;;;;;;8.56;93.47;93461.28;5061406;28;20044;-73
2024/02/29 00:46:29;;;;;;;19.17;11.00;;;;;;;8.52;93.99;93462.66;5067107;28;20139;-73
2024/02/29 00:48:55;;;;;;;16.45;10.30;;;;;;;8.42;93.99;93448.41;5067328;28;20411;-74
2024/02/29 00:51:22;;;;;;;14.80;10.77;;;;;;;8.55;93.83;93465.63;5065172;28;20044;-73
2024/02/29 00:53:49;;;;;;;15.10;9.63;;;;;;;8.53;94.21;93459.09;5059723;28;20052;-73
2024/02/29 00:56:16;;;;;;;18.00;9.93;;;;;;;8.53;94.40;93462.44;5064627;28;20522;-73
2024/02/29 00:58:43;;;;;;;15.95;10.05;;;;;;;8.45;94.14;93449.00;5065621;28;20056;-74
2024/02/29 01:01:10;;;;;;;17.80;11.32;;;;;;;8.49;93.78;93463.78;5058639;28;20592;-73
2024/02/29 01:03:39;;;;;;;18.08;9.95;;;;;;;8.50;93.65;93464.56;5059592;28;20050;-73
2024/02/29 01:06:07;;;;;;;15.32;9.20;;;;;;;8.49;94.34;93461.22;5064112;28;20051;-73
2024/02/29 01:08:33;;;;;;;14.80;9.13;;;;;;;8.50;94.60;93474.81;5065554;28;20416;-73
2024/02/29 01:11:00;;;;;;;14.88;9.63;;;;;;;8.43;95.81;93467.88;5064467;28;20052;-73
2024/02/29 01:13:27;;;;;;;16.20;9.77;;;;;;;8.46;95.88;93464.16;5055424;28;20286;-74
2024/02/29 01:15:54;;;;;;;13.90;9.52;;;;;;;8.51;95.59;93469.50;5063849;28;20062;-74
2024/02/29 01:18:21;;;;;;;15.85;9.98;;;;;;;8.48;95.66;93463.97;5065260;28;20045;-74
2024/02/29 01:20:49;;;;;;;17.27;10.30;;;;;;;8.36;95.46;93458.59;5058978;28;20054;-74
2024/02/29 01:23:16;;;;;;;19.02;10.35;;;;;;;8.41;96.09;93466.50;5065216;28;20159;-74
2024/02/29 01:25:43;;;;;;;16.88;10.35;;;;;;;8.37;96.51;93465.28;5061967;28;20059;-73
2024/02/29 01:28:10;;;;;;;20.17;12.00;;;;;;;8.38;96.77;93469.44;5058802;28;20052;-74
2024/02/29 01:30:37;;;;;;;19.77;12.32;;;;;;;8.36;97.36;93461.97;5064287;28;20403;-74
2024/02/29 01:33:04;;;;;;;20.63;11.93;;;;;;;8.31;97.17;93459.16;5061747;28;20061;-75
2024/02/29 01:35:31;;;;;;;18.80;10.88;;;;;;;8.32;97.50;93454.84;5063440;28;20417;-74
2024/02/29 01:37:59;;;;;;;16.38;10.82;;;;;;;8.22;97.62;93450.06;5062641;28;20049;-74
2024/02/29 01:40:26;;;;;;;17.67;11.30;;;;;;;8.30;97.36;93465.28;5061660;28;20048;-74
2024/02/29 01:42:53;;;;;;;17.35;10.30;;;;;;;8.33;97.03;93452.09;5056948;28;20498;-73
2024/02/29 01:45:20;;;;;;;17.83;12.27;;;;;;;8.28;96.87;93447.53;5063624;28;20055;-73
2024/02/29 01:47:47;;;;;;;19.38;11.18;;;;;;;8.27;98.12;93453.66;5059589;28;20049;-73
2024/02/29 01:50:16;;;;;;;14.50;11.25;;;;;;;8.24;97.82;93448.13;5064602;28;20054;-73
2024/02/29 01:52:45;;;;;;;15.68;11.55;;;;;;;8.28;99.00;93450.09;5064121;28;20573;-73
2024/02/29 01:55:14;;;;;;;16.85;12.07;;;;;;;8.25;98.63;93447.13;5058437;28;20927;-73
2024/02/29 01:57:41;;;;;;;20.50;13.27;;;;;;;8.32;98.38;93452.28;5063346;28;20048;-74
2024/02/29 02:00:09;;;;;;;18.60;10.93;;;;;;;8.14;98.21;93427.97;5062302;28;20067;-73
2024/02/29 02:02:37;;;;;;;17.05;9.60;;;;;;;8.33;97.85;93456.44;5054046;28;20391;-73
2024/02/29 02:05:05;;;;;;;16.92;10.52;;;;;;;8.28;98.99;93454.41;5061709;28;20045;-73
2024/02/29 02:07:35;;;;;;;20.70;10.88;;;;;;;8.32;98.33;93447.94;5063759;28;20069;-73
2024/02/29 02:10:02;;;;;;;27.33;11.70;;;;;;;8.35;97.98;93442.47;5065898;28;20045;-73
2024/02/29 02:12:31;;;;;;;18.23;11.13;;;;;;;8.35;98.19;93441.66;5060348;28;20044;-73
2024/02/29 02:14:58;;;;;;;22.58;12.38;;;;;;;8.33;97.82;93438.50;5061929;28;20048;-73
2024/02/29 02:17:25;;;;;;;14.43;9.18;;;;;;;8.36;97.73;93448.34;5067692;28;20127;-73
2024/02/29 02:19:53;;;;;;;16.48;9.80;;;;;;;8.27;97.12;93445.16;5064651;28;20051;-73
2024/02/29 02:22:21;;;;;;;13.82;9.45;;;;;;;8.29;96.73;93440.66;5060719;28;20048;-73
2024/02/29 02:24:48;;;;;;;13.80;9.38;;;;;;;8.25;96.65;93440.22;5066198;28;20524;-73
2024/02/29 02:27:15;;;;;;;14.45;9.65;;;;;;;8.29;96.99;93438.09;5064439;28;20059;-73
2024/02/29 02:29:42;;;;;;;14.75;10.55;;;;;;;8.34;97.15;93443.41;5063222;28;20045;-73
2024/02/29 02:32:09;;;;;;;11.93;9.10;;;;;;;8.35;97.19;93446.78;5064090;28;20044;-74
2024/02/29 02:34:36;;;;;;;12.00;8.65;;;;;;;8.36;96.59;93446.59;5065238;28;20045;-74
2024/02/29 02:37:03;;;;;;;11.07;8.07;;;;;;;8.28;97.70;93428.81;5059638;28;20056;-74
2024/02/29 02:39:31;;;;;;;11.52;8.95;;;;;;;8.31;99.35;93432.78;5066117;28;20047;-73
2024/02/29 02:41:58;;;;;;;11.60;8.50;;;;;;;8.25;98.18;93424.88;5061974;28;20494;-73
2024/02/29 02:44:25;;;;;;;18.35;11.45;;;;;;;8.42;97.66;93440.72;5063484;28;20418;-74
2024/02/29 02:46:52;;;;;;;14.18;10.57;;;;;;;8.43;98.19;93436.41;5060487;28;20049;-73
2024/02/29 02:49:19;;;;;;;18.13;14.20;;;;;;;8.48;97.72;93441.72;5062080;28;20448;-73
2024/02/29 02:51:46;;;;;;;14.48;10.57;;;;;;;8.53;97.47;93433.50;5064967;28;20052;-74
2024/02/29 02:54:12;;;;;;;16.17;10.60;;;;;;;8.55;96.49;93437.47;5065883;28;20070;-74
2024/02/29 02:56:41;;;;;;;17.35;11.38;;;;;;;8.52;96.65;93430.16;5066928;28;20048;-74
2024/02/29 02:59:08;;;;;;;24.55;19.52;;;;;;;8.51;97.55;93430.31;5064499;28;20045;-74
2024/02/29 03:01:35;;;;;;;13.48;9.02;;;;;;;8.51;97.03;93432.84;5064830;28;20048;-74
2024/02/29 03:04:01;;;;;;;18.67;11.50;;;;;;;8.50;97.10;93429.53;5062816;28;20044;-74
2024/02/29 03:06:28;;;;;;;20.60;12.63;;;;;;;8.47;98.57;93424.78;5066686;28;20045;-74
2024/02/29 03:08:55;;;;;;;20.45;14.13;;;;;;;8.43;97.90;93429.50;5065079;28;20044;-74
2024/02/29 03:11:22;;;;;;;28.00;18.80;;;;;;;8.44;98.15;93425.19;5059404;28;20049;-74
2024/02/29 03:13:50;;;;;;;24.15;17.67;;;;;;;8.39;96.82;93400.13;5064950;28;20058;-74
2024/02/29 03:16:27;;;;;;;17.80;13.35;;;;;;;8.49;95.88;93424.59;5066802;28;20048;-74
2024/02/29 03:18:55;;;;;;;18.27;13.68;;;;;;;8.48;96.13;93412.78;5058053;28;20139;-74
2024/02/29 03:21:22;;;;;;;23.42;15.93;;;;;;;8.35;97.43;93395.59;5062723;28;20090;-74
2024/02/29 03:23:50;;;;;;;32.10;19.10;;;;;;;8.45;97.37;93413.94;5063610;28;20094;-74
2024/02/29 03:26:17;;;;;;;23.92;16.70;;;;;;;8.48;96.33;93418.66;5065914;28;20040;-74
2024/02/29 03:28:44;;;;;;;20.50;15.88;;;;;;;8.51;96.23;93417.50;5064273;28;20052;-74
2024/02/29 03:31:13;;;;;;;18.55;14.23;;;;;;;8.51;96.17;93420.06;5059290;28;20501;-73
2024/02/29 03:33:40;;;;;;;21.55;13.57;;;;;;;8.40;97.48;93399.16;5064988;28;20518;-74
2024/02/29 03:36:08;;;;;;;21.48;14.20;;;;;;;8.40;96.42;93406.06;5061845;28;20052;-73
2024/02/29 03:38:36;;;;;;;17.17;11.45;;;;;;;8.37;96.72;93389.31;5064006;28;20041;-74
2024/02/29 03:41:03;;;;;;;18.63;12.32;;;;;;;8.52;96.58;93407.09;5063152;28;20055;-73
2024/02/29 03:43:30;;;;;;;17.27;11.35;;;;;;;8.52;97.27;93408.88;5061340;28;20051;-73
2024/02/29 03:45:57;;;;;;;20.92;13.52;;;;;;;8.46;97.13;93387.38;5065029;28;20090;-74
2024/02/29 03:48:25;;;;;;;19.10;12.88;;;;;;;8.50;99.31;93398.81;5061391;28;20406;-74
2024/02/29 03:50:52;;;;;;;15.45;10.35;;;;;;;8.44;99.81;93399.56;5057396;28;20056;-74
2024/02/29 03:53:19;;;;;;;15.68;11.15;;;;;;;8.43;100.00;93390.31;5065197;28;20045;-74
2024/02/29 03:55:48;;;;;;;13.85;10.07;;;;;;;8.35;100.00;93395.59;5065203;28;20049;-73
2024/02/29 03:58:15;;;;;;;31.77;21.45;;;;;;;8.39;100.00;93391.69;5064345;28;20689;-73
2024/02/29 04:00:42;;;;;;;35.75;21.23;;;;;;;8.41;100.00;93397.38;5059704;28;20103;-73
2024/02/29 04:03:09;;;;;;;27.58;16.63;;;;;;;8.42;99.22;93398.97;5063699;28;20544;-73
2024/02/29 04:05:38;;;;;;;41.85;24.50;;;;;;;8.43;98.74;93396.22;5064707;28;20450;-73
2024/02/29 04:08:10;;;;;;;64.45;36.53;;;;;;;8.36;98.87;93385.16;5068857;28;20052;-73
2024/02/29 04:10:37;;;;;;;54.70;29.75;;;;;;;8.45;98.89;93396.03;5068831;28;20113;-73
2024/02/29 04:13:05;;;;;;;32.78;19.55;;;;;;;8.47;98.32;93399.19;5064134;28;20054;-74
2024/02/29 04:15:32;;;;;;;27.05;17.25;;;;;;;8.49;100.00;93397.22;5065369;28;20048;-73
2024/02/29 04:17:58;;;;;;;26.77;16.98;;;;;;;8.50;98.85;93390.31;5065239;28;20044;-73
2024/02/29 04:20:25;;;;;;;33.67;17.20;;;;;;;8.48;98.83;93377.72;5065580;28;20047;-73
2024/02/29 04:22:54;;;;;;;20.33;14.65;;;;;;;8.40;100.00;93383.00;5062495;28;20524;-74
2024/02/29 04:25:22;;;;;;;29.90;18.23;;;;;;;8.42;100.00;93381.84;5064157;28;20769;-73
2024/02/29 04:27:50;;;;;;;170.95;87.43;;;;;;;8.36;100.00;93372.38;5064196;28;20098;-74
2024/02/29 04:30:18;;;;;;;36.42;19.92;;;;;;;8.15;99.24;93368.16;5068268;28;20076;-74
2024/02/29 04:32:46;;;;;;;33.08;18.15;;;;;;;8.17;98.38;93363.63;5060047;28;20128;-73
2024/02/29 04:35:16;;;;;;;33.83;19.15;;;;;;;8.35;99.66;93393.03;5067766;28;20059;-73
2024/02/29 04:37:43;;;;;;;28.92;18.85;;;;;;;8.37;99.34;93399.53;5064985;28;20063;-73
2024/02/29 04:40:12;;;;;;;32.40;19.35;;;;;;;8.37;99.27;93391.84;5066106;28;20051;-73
2024/02/29 04:42:39;;;;;;;31.23;19.00;;;;;;;8.37;100.00;93396.97;5066096;28;20055;-73
2024/02/29 04:45:07;;;;;;;34.47;19.92;;;;;;;8.37;99.13;93391.06;5067493;28;20059;-73
2024/02/29 04:47:34;;;;;;;31.08;19.23;;;;;;;8.33;99.31;93403.44;5068019;28;20074;-73
2024/02/29 04:50:01;;;;;;;35.17;20.88;;;;;;;8.27;99.59;93394.78;5063358;28;20051;-73
2024/02/29 04:52:28;;;;;;;35.58;19.98;;;;;;;8.13;98.79;93373.47;5066291;28;20400;-73
2024/02/29 04:54:55;;;;;;;47.20;27.15;;;;;;;8.37;98.57;93402.09;5063980;28;20141;-74
2024/02/29 04:57:23;;;;;;;47.13;27.30;;;;;;;8.24;99.24;93384.13;5066746;28;20520;-73
2024/02/29 04:59:51;;;;;;;44.80;25.25;;;;;;;8.33;99.53;93400.91;5068488;28;20044;-73
2024/02/29 05:02:18;;;;;;;40.97;24.10;;;;;;;8.25;100.00;93391.59;5064239;28;20092;-73
2024/02/29 05:04:45;;;;;;;36.58;19.65;;;;;;;8.24;100.00;93402.81;5066058;28;20049;-73
2024/02/29 05:07:12;;;;;;;31.92;17.67;;;;;;;8.27;100.00;93406.78;5064573;28;20047;-73
2024/02/29 05:09:39;;;;;;;27.52;17.15;;;;;;;8.23;100.00;93403.81;5068042;28;20052;-73
2024/02/29 05:12:07;;;;;;;26.45;16.05;;;;;;;8.23;99.97;93401.25;5066312;28;20041;-73
2024/02/29 05:14:35;;;;;;;30.23;16.23;;;;;;;8.23;100.00;93401.25;5064064;28;20045;-74
2024/02/29 05:17:05;;;;;;;26.10;16.55;;;;;;;8.19;100.00;93399.28;5063554;28;20494;-73
2024/02/29 05:19:32;;;;;;;29.13;17.67;;;;;;;8.11;100.00;93406.09;5068973;28;20049;-74
2024/02/29 05:21:59;;;;;;;36.20;20.00;;;;;;;8.14;100.00;93402.38;5066602;28;20125;-73
2024/02/29 05:24:26;;;;;;;48.05;31.50;;;;;;;8.13;100.00;93401.59;5067780;28;20044;-73
2024/02/29 05:26:53;;;;;;;52.03;35.63;;;;;;;8.11;100.00;93406.09;5067208;28;20048;-73
2024/02/29 05:29:20;;;;;;;40.58;28.42;;;;;;;8.13;100.00;93406.72;5066126;28;20119;-73
2024/02/29 05:31:52;;;;;;;31.67;20.23;;;;;;;8.15;100.00;93409.09;5065604;28;20044;-73
2024/02/29 05:34:20;;;;;;;27.60;17.60;;;;;;;8.18;100.00;93407.94;5065786;28;20168;-74
2024/02/29 05:36:47;;;;;;;23.98;15.73;;;;;;;8.14;100.00;93415.97;5065813;28;20055;-73
2024/02/29 05:39:14;;;;;;;30.92;16.15;;;;;;;8.16;100.00;93416.56;5066935;28;20050;-74
2024/02/29 05:41:41;;;;;;;29.75;16.40;;;;;;;8.23;100.00;93421.72;5064243;28;20384;-74
2024/02/29 05:44:08;;;;;;;28.90;15.80;;;;;;;8.24;100.00;93420.75;5065300;28;20040;-74
2024/02/29 05:46:35;;;;;;;24.15;15.77;;;;;;;8.26;100.00;93423.13;5063028;28;20047;-74
2024/02/29 05:49:03;;;;;;;25.90;16.15;;;;;;;8.23;100.00;93416.59;5063227;28;20041;-74
2024/02/29 05:51:30;;;;;;;29.90;16.73;;;;;;;8.29;100.00;93423.53;5062391;28;20417;-74
2024/02/29 05:53:57;;;;;;;26.75;16.88;;;;;;;8.35;100.00;93422.00;5064323;28;20045;-74
2024/02/29 05:56:24;;;;;;;34.30;18.15;;;;;;;8.31;100.00;93423.34;5051246;28;20132;-74
2024/02/29 05:58:51;;;;;;;28.63;17.75;;;;;;;8.34;100.00;93422.94;5056604;28;20482;-74
2024/02/29 06:01:18;;;;;;;28.17;18.33;;;;;;;8.15;100.00;93391.97;5064676;28;20083;-74
2024/02/29 06:03:45;;;;;;;30.73;19.92;;;;;;;8.40;100.00;93424.78;5056295;28;20100;-74
2024/02/29 06:06:16;;;;;;;28.25;19.75;;;;;;;8.43;100.00;93426.94;5054316;28;20056;-74
2024/02/29 06:08:42;;;;;;;28.05;18.67;;;;;;;8.48;100.00;93428.91;5053734;28;20054;-74
2024/02/29 06:11:13;;;;;;;33.45;22.23;;;;;;;8.57;100.00;93429.59;5055533;28;20052;-74
2024/02/29 06:13:40;;;;;;;37.70;24.13;;;;;;;8.64;100.00;93424.47;5050487;28;20503;-74
2024/02/29 06:16:07;;;;;;;47.63;27.52;;;;;;;8.67;100.00;93419.75;5048572;28;20140;-73
2024/02/29 06:18:36;;;;;;;46.13;29.75;;;;;;;8.72;100.00;93424.31;5051402;28;20047;-73
2024/02/29 06:21:04;;;;;;;44.22;31.23;;;;;;;8.78;100.00;93415.06;5052039;28;20079;-73
2024/02/29 06:23:32;;;;;;;41.53;30.38;;;;;;;8.62;100.00;93382.91;5053180;28;20396;-74
2024/02/29 06:26:00;;;;;;;40.63;25.90;;;;;;;8.73;100.00;93413.09;5055405;28;20059;-74
2024/02/29 06:28:28;;;;;;;37.05;22.02;;;;;;;8.75;100.00;93403.44;5049155;28;20048;-74
2024/02/29 06:30:55;;;;;;;37.30;21.75;;;;;;;8.78;100.00;93404.81;5057147;28;20450;-74
2024/02/29 06:33:22;;;;;;;41.30;24.95;;;;;;;8.92;100.00;93411.56;5058922;28;20063;-74
2024/02/29 06:35:49;;;;;;;45.28;28.90;;;;;;;9.03;100.00;93422.22;5057902;28;20040;-74
2024/02/29 06:38:16;;;;;;;36.08;23.90;;;;;;;9.10;100.00;93430.69;5059355;28;20491;-74
2024/02/29 06:40:46;;;;;;;36.03;21.65;;;;;;;9.19;100.00;93429.53;5051435;28;20045;-74
2024/02/29 06:43:13;;;;;;;33.30;22.08;;;;;;;9.16;100.00;93426.59;5054268;28;20047;-74
2024/02/29 06:45:46;;;;;;;33.20;21.27;;;;;;;9.28;100.00;93434.47;5061483;28;20448;-74
2024/02/29 06:48:14;;;;;;;45.47;27.42;;;;;;;9.28;99.99;93426.78;5049277;28;20576;-74
2024/02/29 06:50:41;;;;;;;46.00;28.25;;;;;;;9.35;99.08;93430.94;5054927;28;20498;-74
2024/02/29 06:53:07;;;;;;;68.97;38.38;;;;;;;9.38;98.80;93426.38;5054071;28;20160;-73
2024/02/29 06:55:34;;;;;;;67.93;36.65;;;;;;;9.52;98.24;93427.19;5049920;28;20502;-73
2024/02/29 06:58:03;;;;;;;57.28;31.60;;;;;;;9.58;97.84;93424.63;5051887;28;20045;-73
2024/02/29 07:00:30;;;;;;;58.72;33.90;;;;;;;9.63;96.65;93429.19;5052890;28;20140;-74
2024/02/29 07:02:57;;;;;;;61.38;35.22;;;;;;;9.63;97.02;93417.13;5050605;28;20058;-73
2024/02/29 07:05:26;;;;;;;62.80;33.30;;;;;;;9.71;95.83;93415.34;5050108;28;20056;-74
2024/02/29 07:07:54;;;;;;;53.25;29.80;;;;;;;9.78;95.29;93408.44;5055455;28;20048;-73
2024/02/29 07:10:21;;;;;;;43.25;25.70;;;;;;;9.78;95.97;93400.75;5056214;28;20647;-74
2024/02/29 07:12:49;;;;;;;39.08;21.50;;;;;;;9.82;95.75;93406.25;5052480;28;20045;-73
2024/02/29 07:15:17;;;;;;;34.42;21.98;;;;;;;9.86;95.14;93397.19;5052230;28;20051;-73
2024/02/29 07:17:44;;;;;;;39.90;25.25;;;;;;;9.94;96.06;93398.72;5055528;28;20052;-73
2024/02/29 07:20:14;;;;;;;42.20;25.77;;;;;;;10.01;96.45;93392.59;5050411;28;20077;-73
2024/02/29 07:22:41;;;;;;;48.80;24.98;;;;;;;10.05;95.20;93399.91;5050602;28;20048;-73
2024/02/29 07:25:09;;;;;;;38.88;23.65;;;;;;;10.01;94.90;93396.94;5052891;28;20103;-73
2024/02/29 07:27:38;;;;;;;45.50;25.00;;;;;;;10.08;94.73;93392.59;5052333;28;20502;-73
2024/02/29 07:30:08;;;;;;;92.07;47.38;;;;;;;10.09;95.82;93395.94;5052226;28;20067;-73
2024/02/29 07:32:36;;;;;;;86.25;40.25;;;;;;;10.05;95.55;93394.78;5049855;28;20037;-73
2024/02/29 07:35:04;;;;;;;63.60;33.08;;;;;;;10.06;94.73;93391.22;5050852;28;20041;-73
2024/02/29 07:37:32;;;;;;;52.47;28.63;;;;;;;10.08;96.39;93387.44;5058076;28;20048;-73
2024/02/29 07:39:59;;;;;;;48.00;25.58;;;;;;;10.14;94.78;93378.94;5048695;28;20053;-73
2024/02/29 07:42:26;;;;;;;45.90;24.85;;;;;;;10.25;94.67;93387.81;5047438;28;20049;-74
2024/02/29 07:44:53;;;;;;;36.53;22.27;;;;;;;10.33;94.17;93383.44;5057342;28;20726;-73
2024/02/29 07:47:20;;;;;;;32.55;19.73;;;;;;;10.40;93.49;93379.03;5047274;28;20049;-73
2024/02/29 07:49:48;;;;;;;32.42;21.38;;;;;;;10.51;94.07;93372.53;5050523;28;20049;-73
2024/02/29 07:52:15;;;;;;;30.40;19.23;;;;;;;10.59;93.19;93367.13;5049698;28;20051;-73
2024/02/29 07:54:43;;;;;;;31.52;21.33;;;;;;;10.67;92.24;93356.63;5048937;28;20051;-73
2024/02/29 07:57:10;;;;;;;32.65;20.40;;;;;;;10.79;91.46;93359.31;5052872;28;20045;-73
2024/02/29 07:59:37;;;;;;;68.13;44.80;;;;;;;10.91;92.29;93351.75;5048143;28;20045;-74
2024/02/29 08:02:04;;;;;;;57.30;38.28;;;;;;;10.99;93.13;93357.63;5052286;28;20083;-74
2024/02/29 08:04:32;;;;;;;38.95;27.00;;;;;;;11.13;92.77;93356.53;5056073;28;20049;-74
2024/02/29 08:07:00;;;;;;;36.10;23.48;;;;;;;11.26;92.40;93357.44;5060151;28;20045;-74
2024/02/29 08:09:27;;;;;;;30.85;18.17;;;;;;;11.32;92.71;93347.09;5047130;28;20063;-74
2024/02/29 08:11:54;;;;;;;23.35;15.27;;;;;;;11.34;93.07;93342.53;5053559;28;20923;-74
2024/02/29 08:14:21;;;;;;;27.02;16.02;;;;;;;11.15;94.59;93333.97;5047219;28;20502;-74
2024/02/29 08:16:48;;;;;;;26.83;17.35;;;;;;;11.02;95.66;93322.00;5049959;28;20057;-74
2024/02/29 08:19:16;;;;;;;34.90;22.52;;;;;;;11.01;96.90;93329.94;5048603;28;20049;-73
2024/02/29 08:21:43;;;;;;;35.55;24.45;;;;;;;11.16;95.57;93332.97;5048389;28;20607;-74
2024/02/29 08:24:11;;;;;;;36.08;22.88;;;;;;;11.35;96.02;93315.81;5051035;28;20049;-74
2024/02/29 08:26:38;;;;;;;33.45;20.80;;;;;;;11.52;94.37;93307.53;5050547;28;20041;-74
2024/02/29 08:29:05;;;;;;;30.38;18.70;;;;;;;11.31;95.87;93299.25;5047761;28;20494;-74
2024/02/29 08:31:32;;;;;;;28.38;19.10;;;;;;;11.48;95.40;93311.56;5051622;28;20036;-74
2024/02/29 08:33:59;;;;;;;27.10;17.95;;;;;;;11.60;94.11;93316.78;5049139;28;20494;-74
2024/02/29 08:36:28;;;;;;;36.22;22.25;;;;;;;11.55;93.22;93301.19;5056539;28;20091;-74
2024/02/29 08:38:55;;;;;;;40.13;23.60;;;;;;;11.85;92.77;93332.16;5057328;28;20144;-74
2024/02/29 08:41:23;;;;;;;42.95;26.33;;;;;;;11.96;92.93;93342.75;5046381;28;20126;-74
2024/02/29 08:43:50;;;;;;;52.33;31.65;;;;;;;12.05;92.18;93341.50;5050817;28;20049;-74
2024/02/29 08:46:17;;;;;;;43.80;26.13;;;;;;;12.12;92.09;93349.13;5048379;28;20044;-74
2024/02/29 08:48:45;;;;;;;32.75;20.27;;;;;;;12.11;90.21;93355.28;5056230;28;20061;-73
2024/02/29 08:51:12;;;;;;;32.92;18.48;;;;;;;11.98;90.09;93335.59;5054893;28;20036;-74
2024/02/29 08:53:39;;;;;;;22.58;16.45;;;;;;;12.11;88.73;93366.38;5053132;28;20131;-74
2024/02/29 08:56:06;;;;;;;25.83;15.70;;;;;;;12.13;88.69;93354.06;5058403;28;20080;-74
2024/02/29 08:58:35;;;;;;;28.23;16.08;;;;;;;12.19;88.54;93362.72;5050056;28;20047;-74
2024/02/29 09:01:02;;;;;;;24.67;16.02;;;;;;;12.28;87.45;93378.69;5057023;28;20055;-74
2024/02/29 09:03:29;;;;;;;27.80;16.42;;;;;;;12.25;86.04;93369.59;5060367;28;21369;-74
2024/02/29 09:05:56;;;;;;;25.38;15.45;;;;;;;12.23;86.01;93379.31;5056042;28;20127;-74
2024/02/29 09:08:23;;;;;;;22.10;15.65;;;;;;;12.21;86.11;93373.59;5063178;28;20522;-74
2024/02/29 09:10:50;;;;;;;27.15;16.98;;;;;;;12.22;85.45;93380.31;5050353;28;20049;-74
2024/02/29 09:13:17;;;;;;;24.67;15.82;;;;;;;12.32;85.31;93382.41;5051795;28;20427;-74
2024/02/29 09:15:45;;;;;;;37.28;20.88;;;;;;;12.48;84.92;93393.09;5062450;28;21084;-73
2024/02/29 09:18:11;;;;;;;27.45;16.60;;;;;;;12.46;84.01;93390.78;5054472;28;20044;-74
2024/02/29 09:20:38;;;;;;;27.35;17.73;;;;;;;12.61;84.14;93410.19;5052871;28;20045;-74
2024/02/29 09:23:05;;;;;;;31.40;18.40;;;;;;;12.71;84.19;93402.75;5055783;28;20055;-74
2024/02/29 09:25:32;;;;;;;33.85;16.00;;;;;;;12.78;83.70;93406.00;5052304;28;20041;-74
2024/02/29 09:27:59;;;;;;;17.90;12.68;;;;;;;12.80;83.62;93396.28;5061149;28;20132;-74
2024/02/29 09:30:27;;;;;;;23.25;14.27;;;;;;;12.95;83.63;93407.97;5053632;28;20067;-74
2024/02/29 09:32:55;;;;;;;24.92;16.42;;;;;;;13.02;83.01;93395.81;5052387;28;20123;-74
2024/02/29 09:35:22;;;;;;;15.95;11.27;;;;;;;13.10;82.17;93392.91;5062333;28;20124;-74
2024/02/29 09:37:49;;;;;;;25.48;11.52;;;;;;;13.12;80.84;93390.09;5053663;28;20045;-74
2024/02/29 09:40:20;;;;;;;16.73;10.05;;;;;;;13.11;80.85;93385.97;5051809;28;20048;-74
2024/02/29 09:42:47;;;;;;;17.35;10.70;;;;;;;13.05;80.44;93371.38;5051419;28;20081;-74
2024/02/29 09:45:15;;;;;;;22.88;13.05;;;;;;;13.15;80.96;93386.31;5050004;28;20045;-74
2024/02/29 09:47:42;;;;;;;24.67;14.07;;;;;;;13.06;81.07;93381.44;5049220;28;20750;-74
2024/02/29 09:50:11;;;;;;;24.52;14.40;;;;;;;12.85;82.51;93393.06;5048759;28;20057;-74
2024/02/29 09:52:39;;;;;;;23.38;14.23;;;;;;;12.60;84.15;93388.03;5052625;28;20049;-74
2024/02/29 09:55:13;;;;;;;17.63;11.40;;;;;;;12.67;82.38;93396.44;5050496;28;20044;-74
2024/02/29 09:57:41;;;;;;;22.02;11.90;;;;;;;12.95;80.25;93392.50;5061570;28;20057;-74
2024/02/29 10:00:11;;;;;;;31.75;18.88;;;;;;;13.10;80.06;93390.31;5053378;28;20094;-74
2024/02/29 10:02:39;;;;;;;21.30;13.05;;;;;;;13.13;79.40;93360.72;5048428;28;20052;-74
2024/02/29 10:05:10;;;;;;;19.95;11.15;;;;;;;13.47;79.45;93381.66;5053037;28;20056;-74
2024/02/29 10:07:44;;;;;;;14.45;8.40;;;;;;;13.69;78.57;93381.13;5052748;28;20420;-74
2024/02/29 10:10:13;;;;;;;15.93;8.27;;;;;;;13.85;77.18;93359.00;5061862;28;20048;-74
2024/02/29 10:15:28;;;;;;;16.58;8.23;;;;;;;14.20;73.60;93364.34;5051114;28;20194;-74
2024/02/29 10:17:56;;;;;;;19.95;14.52;;;;;;;14.22;74.43;93339.06;5050585;28;20044;-73
2024/02/29 10:20:23;;;;;;;16.48;10.43;;;;;;;14.47;73.55;93367.19;5050009;28;20053;-74
2024/02/29 10:22:52;;;;;;;15.27;9.73;;;;;;;14.61;70.96;93362.53;5051724;28;20044;-74
2024/02/29 10:25:20;;;;;;;20.00;12.18;;;;;;;14.84;73.24;93358.31;5055849;28;20421;-74
2024/02/29 10:27:47;;;;;;;20.00;12.95;;;;;;;14.94;72.86;93340.38;5051746;28;20055;-74
2024/02/29 10:30:17;;;;;;;14.43;9.75;;;;;;;15.09;70.19;93352.03;5049748;28;20052;-74
2024/02/29 10:32:44;;;;;;;15.73;8.48;;;;;;;15.27;70.54;93352.81;5052422;28;20146;-74
2024/02/29 10:35:17;;;;;;;14.25;7.20;;;;;;;15.56;69.24;93344.97;5048321;28;20137;-74
2024/02/29 10:37:44;;;;;;;11.63;6.88;;;;;;;15.75;69.32;93342.88;5055721;28;20059;-74
2024/02/29 10:40:13;;;;;;;12.70;6.63;;;;;;;15.82;68.27;93334.94;5049020;28;20454;-74
2024/02/29 10:42:41;;;;;;;15.63;7.20;;;;;;;16.01;66.99;93332.88;5048074;28;20058;-75
2024/02/29 10:45:14;;;;;;;11.23;5.88;;;;;;;16.00;66.42;93321.75;5048872;28;20049;-74
2024/02/29 10:47:45;;;;;;;10.77;5.38;;;;;;;16.23;65.91;93332.91;5051695;28;20498;-72
2024/02/29 10:50:16;;;;;;;11.25;5.95;;;;;;;16.34;65.14;93315.63;5048598;28;20051;-72
2024/02/29 10:52:50;;;;;;;11.40;5.93;;;;;;;16.41;64.24;93303.28;5050338;28;20533;-72
2024/02/29 10:55:25;;;;;;;10.15;5.65;;;;;;;16.74;63.61;93321.50;5051534;28;20056;-72
2024/02/29 10:58:03;;;;;;;11.30;6.03;;;;;;;16.90;64.38;93326.84;5050210;28;20049;-72
2024/02/29 11:00:30;;;;;;;14.10;5.10;;;;;;;16.93;62.45;93336.69;5051720;28;20167;-72
2024/02/29 11:02:58;;;;;;;9.93;4.70;;;;;;;17.07;62.01;93324.13;5048998;28;20580;-72
2024/02/29 11:05:26;;;;;;;8.85;4.90;;;;;;;17.21;61.43;93317.50;5050284;28;20045;-72
2024/02/29 11:07:54;;;;;;;8.65;4.03;;;;;;;17.40;58.99;93322.31;5050176;28;20047;-71
2024/02/29 11:10:24;;;;;;;9.85;4.70;;;;;;;17.46;58.09;93317.94;5051468;28;20127;-72
2024/02/29 11:12:57;;;;;;;7.45;4.63;;;;;;;17.60;58.72;93310.50;5049459;28;20048;-72
2024/02/29 11:15:26;;;;;;;11.27;5.78;;;;;;;17.73;58.85;93310.06;5050613;28;20147;-72
2024/02/29 11:17:53;;;;;;;10.40;4.20;;;;;;;17.95;58.38;93303.16;5048121;28;20057;-72
2024/02/29 11:20:23;;;;;;;10.20;5.30;;;;;;;17.90;58.05;93294.31;5049560;28;20049;-72
2024/02/29 11:23:02;;;;;;;9.63;5.45;;;;;;;18.10;57.58;93290.25;5052666;28;20052;-72
2024/02/29 11:25:31;;;;;;;11.25;5.28;;;;;;;18.05;58.00;93300.59;5050282;28;20046;-72
2024/02/29 11:28:07;;;;;;;15.07;5.50;;;;;;;17.98;57.72;93271.44;5049423;28;20080;-72